Time;durP1;ratioP1;P1;durP2;ratioP2;P2;SDS_P1;SDS_P2;PMS_P1;PMS_P2;Temp;Humidity;BMP_temperature;BMP_pressure;BME280_temperature;BME280_humidity;BME280_pressure;Samples;Min_cycle;Max_cycle;Signal;HPM_P1;HPM_P2
2023/06/10 00:01:24;;;;;;;4.90;4.70;;;;;;;20.58;86.41;98921.91;5038395;28;20212;-72
2023/06/10 00:03:52;;;;;;;5.50;5.00;;;;;;;20.53;86.26;98921.91;5034422;28;20194;-72
2023/06/10 00:06:21;;;;;;;5.77;5.33;;;;;;;20.50;87.13;98921.66;5033972;28;20281;-71
2023/06/10 00:08:49;;;;;;;7.53;4.73;;;;;;;20.48;86.50;98929.22;5033464;28;20221;-70
2023/06/10 00:11:15;;;;;;;5.50;5.10;;;;;;;20.49;86.65;98925.44;5047287;28;20258;-71
2023/06/10 00:13:42;;;;;;;5.27;4.77;;;;;;;20.53;86.27;98919.22;5053860;28;20248;-70
2023/06/10 00:16:09;;;;;;;5.03;4.60;;;;;;;20.50;85.90;98924.38;5053675;28;20714;-70
2023/06/10 00:18:36;;;;;;;5.30;4.80;;;;;;;20.55;85.66;98925.13;5053977;28;20192;-70
2023/06/10 00:21:04;;;;;;;6.23;4.73;;;;;;;20.56;85.59;98920.56;5041348;28;20232;-71
2023/06/10 00:23:31;;;;;;;9.83;5.20;;;;;;;20.60;86.73;98921.63;5034024;28;20190;-70
2023/06/10 00:26:00;;;;;;;4.33;4.13;;;;;;;20.59;85.19;98920.03;5033878;28;20193;-71
2023/06/10 00:28:27;;;;;;;4.97;4.57;;;;;;;20.54;86.08;98922.72;5033867;28;20286;-71
2023/06/10 00:30:53;;;;;;;4.73;4.33;;;;;;;20.54;85.63;98926.22;5032929;28;20198;-71
2023/06/10 00:33:20;;;;;;;9.47;5.33;;;;;;;20.54;85.53;98923.53;5032202;28;20849;-71
2023/06/10 00:35:47;;;;;;;5.43;4.90;;;;;;;20.61;85.84;98923.25;5033255;28;20280;-71
2023/06/10 00:38:15;;;;;;;6.07;5.27;;;;;;;20.72;85.04;98924.00;5033767;28;20200;-71
2023/06/10 00:40:42;;;;;;;5.37;4.97;;;;;;;20.76;84.34;98915.09;5041625;28;20228;-71
2023/06/10 00:43:10;;;;;;;4.80;4.50;;;;;;;20.75;84.08;98924.28;5053495;28;20200;-71
2023/06/10 00:45:37;;;;;;;5.10;4.80;;;;;;;20.69;84.21;98919.97;5053021;28;20725;-72
2023/06/10 00:48:05;;;;;;;5.20;4.70;;;;;;;20.51;84.76;98917.88;5050834;28;20601;-71
2023/06/10 00:50:32;;;;;;;5.03;4.60;;;;;;;20.45;85.87;98914.38;5033102;28;20747;-71
2023/06/10 00:53:00;;;;;;;5.83;5.33;;;;;;;20.40;85.64;98922.50;5033391;28;20259;-71
2023/06/10 00:55:27;;;;;;;5.53;5.00;;;;;;;20.38;86.03;98915.75;5033330;28;20622;-71
2023/06/10 00:57:54;;;;;;;5.63;5.13;;;;;;;20.41;86.51;98912.50;5033331;28;20201;-70
2023/06/10 01:00:22;;;;;;;5.23;4.83;;;;;;;20.44;85.88;98912.78;5033123;28;20675;-71
2023/06/10 01:02:52;;;;;;;4.80;4.40;;;;;;;20.50;85.77;98910.88;5033288;28;20200;-71
2023/06/10 01:05:19;;;;;;;8.97;5.17;;;;;;;20.62;85.18;98914.06;5033031;28;20761;-71
2023/06/10 01:07:53;;;;;;;5.50;5.00;;;;;;;20.69;84.54;98919.97;5044179;28;20781;-71
2023/06/10 01:10:25;;;;;;;5.17;4.80;;;;;;;20.71;84.46;98922.41;5052545;28;20189;-70
2023/06/10 01:12:59;;;;;;;5.43;4.93;;;;;;;20.69;84.90;98930.78;5052786;28;20191;-70
2023/06/10 01:15:27;;;;;;;5.37;4.87;;;;;;;20.67;84.06;98925.66;5053235;28;20322;-70
2023/06/10 01:17:57;;;;;;;5.13;4.77;;;;;;;20.65;84.60;98920.81;5039005;28;20263;-70
2023/06/10 01:20:23;;;;;;;4.50;4.10;;;;;;;20.75;84.50;98929.69;5032848;28;20201;-71
2023/06/10 01:22:54;;;;;;;14.67;5.93;;;;;;;20.81;83.88;98938.56;5032900;28;20627;-71
2023/06/10 01:25:27;;;;;;;8.50;4.63;;;;;;;20.85;83.45;98929.63;5032515;28;20678;-71
2023/06/10 01:28:00;;;;;;;6.27;4.83;;;;;;;20.88;83.26;98934.50;5044953;28;20212;-70
2023/06/10 01:30:33;;;;;;;5.23;4.90;;;;;;;20.91;82.97;98935.84;5052774;28;20181;-71
2023/06/10 01:33:02;;;;;;;5.30;4.73;;;;;;;20.91;83.43;98939.38;5052680;28;20230;-72
2023/06/10 01:35:31;;;;;;;4.93;4.53;;;;;;;20.94;83.03;98938.03;5052546;28;20196;-72
2023/06/10 01:38:01;;;;;;;7.43;4.63;;;;;;;20.87;82.38;98932.88;5038280;28;20255;-71
2023/06/10 01:40:30;;;;;;;4.90;4.70;;;;;;;20.88;82.40;98942.59;5032585;28;20225;-71
2023/06/10 01:42:57;;;;;;;4.87;4.30;;;;;;;20.73;83.37;98920.22;5032625;28;20189;-71
2023/06/10 01:45:24;;;;;;;5.07;4.70;;;;;;;20.76;83.46;98936.69;5037533;28;20247;-70
2023/06/10 01:47:50;;;;;;;5.33;5.00;;;;;;;20.72;83.58;98929.41;5052102;28;20645;-71
2023/06/10 01:50:17;;;;;;;6.70;4.70;;;;;;;20.74;83.31;98927.25;5052070;28;20258;-71
2023/06/10 01:52:44;;;;;;;4.93;4.63;;;;;;;20.76;83.48;98933.19;5046896;28;20252;-71
2023/06/10 01:55:12;;;;;;;6.10;4.63;;;;;;;20.72;83.43;98932.94;5031502;28;20225;-71
2023/06/10 01:57:38;;;;;;;4.93;4.50;;;;;;;20.67;84.05;98932.94;5032190;28;20198;-72
2023/06/10 02:00:07;;;;;;;4.53;4.17;;;;;;;20.64;84.27;98936.19;5032305;28;20259;-72
2023/06/10 02:02:34;;;;;;;4.73;4.43;;;;;;;20.65;84.02;98940.50;5034351;28;20209;-71
2023/06/10 02:05:01;;;;;;;4.77;4.33;;;;;;;20.68;83.92;98931.88;5042881;28;20252;-72
2023/06/10 02:07:28;;;;;;;4.50;4.20;;;;;;;20.70;83.45;98935.09;5031793;28;20193;-71
2023/06/10 02:09:54;;;;;;;6.30;4.77;;;;;;;20.66;83.48;98928.63;5031869;28;20627;-71
2023/06/10 02:12:22;;;;;;;7.40;4.87;;;;;;;20.71;83.85;98942.13;5032436;28;20665;-70
2023/06/10 02:14:50;;;;;;;7.57;5.03;;;;;;;20.74;83.73;98938.84;5052083;28;20189;-69
2023/06/10 02:17:17;;;;;;;8.73;4.97;;;;;;;20.77;83.09;98948.28;5051610;28;20207;-70
2023/06/10 02:19:43;;;;;;;5.53;5.10;;;;;;;20.74;83.49;98938.84;5052064;28;20243;-69
2023/06/10 02:22:10;;;;;;;6.40;5.03;;;;;;;20.74;83.47;98940.75;5051857;28;20626;-70
2023/06/10 02:24:37;;;;;;;5.33;4.93;;;;;;;20.67;83.19;98942.94;5050604;28;20246;-70
2023/06/10 02:27:06;;;;;;;9.10;5.20;;;;;;;20.56;83.79;98928.66;5051797;28;20195;-70
2023/06/10 02:29:35;;;;;;;5.80;5.37;;;;;;;20.53;84.01;98931.88;5050758;28;20899;-69
2023/06/10 02:32:03;;;;;;;7.23;5.57;;;;;;;20.55;83.77;98935.13;5051118;28;20197;-70
2023/06/10 02:34:30;;;;;;;5.60;5.07;;;;;;;20.45;84.23;98941.38;5030727;28;20197;-69
2023/06/10 02:36:56;;;;;;;5.90;5.40;;;;;;;20.44;84.87;98934.34;5030214;28;20202;-70
2023/06/10 02:39:23;;;;;;;5.33;5.03;;;;;;;20.49;84.60;98938.91;5030378;28;20689;-70
2023/06/10 02:41:50;;;;;;;5.40;5.00;;;;;;;20.53;84.15;98948.09;5031580;28;20197;-70
2023/06/10 02:44:16;;;;;;;6.47;5.90;;;;;;;20.48;84.29;98942.69;5046878;28;20269;-70
2023/06/10 02:46:44;;;;;;;5.53;5.23;;;;;;;20.42;84.90;98943.81;5051389;28;20661;-70
2023/06/10 02:49:12;;;;;;;5.10;4.70;;;;;;;20.40;84.96;98943.25;5051232;28;20697;-70
2023/06/10 02:51:39;;;;;;;5.13;4.83;;;;;;;20.44;85.18;98938.94;5049886;28;20197;-70
2023/06/10 02:54:06;;;;;;;5.57;5.17;;;;;;;20.45;84.87;98944.06;5045626;28;20621;-69
2023/06/10 02:56:33;;;;;;;6.90;5.90;;;;;;;20.51;84.88;98944.88;5051583;28;20203;-70
2023/06/10 02:59:00;;;;;;;6.33;4.97;;;;;;;20.56;84.78;98947.53;5051259;28;20196;-70
2023/06/10 03:01:27;;;;;;;5.47;5.17;;;;;;;20.61;83.52;98952.91;5051675;28;20577;-69
2023/06/10 03:03:56;;;;;;;5.20;4.80;;;;;;;20.59;84.29;98947.78;5038474;28;20255;-70
2023/06/10 03:06:24;;;;;;;7.10;5.70;;;;;;;20.55;84.38;98951.34;5031534;28;20189;-70
2023/06/10 03:08:51;;;;;;;6.33;5.57;;;;;;;20.55;83.69;98951.34;5031476;28;20727;-71
2023/06/10 03:11:19;;;;;;;5.83;5.03;;;;;;;20.55;83.94;98959.44;5034960;28;20201;-71
2023/06/10 03:13:46;;;;;;;5.40;4.90;;;;;;;20.44;83.78;98955.13;5046273;28;20203;-70
2023/06/10 03:16:13;;;;;;;7.57;4.77;;;;;;;20.40;84.56;98967.53;5042617;28;20284;-71
2023/06/10 03:18:39;;;;;;;7.70;5.37;;;;;;;20.43;84.79;98967.00;5034445;28;20198;-70
2023/06/10 03:21:09;;;;;;;23.87;5.70;;;;;;;20.54;84.24;98958.59;5034426;28;20190;-70
2023/06/10 03:23:36;;;;;;;7.37;5.17;;;;;;;20.61;83.98;98955.63;5034728;28;20199;-71
2023/06/10 03:26:04;;;;;;;8.13;5.23;;;;;;;20.73;83.77;98966.09;5034558;28;20189;-70
2023/06/10 03:28:31;;;;;;;5.20;4.67;;;;;;;20.83;83.89;98960.69;5034118;28;20279;-70
2023/06/10 03:30:58;;;;;;;5.90;4.90;;;;;;;20.92;83.33;98961.78;5035415;28;20214;-70
2023/06/10 03:33:25;;;;;;;9.60;4.83;;;;;;;20.99;82.92;98973.88;5035541;28;20197;-70
2023/06/10 03:35:52;;;;;;;8.97;5.23;;;;;;;21.04;82.31;98963.09;5034610;28;20569;-70
2023/06/10 03:38:21;;;;;;;5.47;4.67;;;;;;;21.12;82.28;98973.31;5034108;28;20669;-71
2023/06/10 03:40:48;;;;;;;4.97;4.53;;;;;;;21.20;82.07;98967.34;5033887;28;20228;-70
2023/06/10 03:43:14;;;;;;;5.47;4.77;;;;;;;21.26;81.71;98963.53;5037659;28;20190;-71
2023/06/10 03:45:42;;;;;;;7.57;4.70;;;;;;;21.33;81.39;98964.03;5034340;28;20185;-70
2023/06/10 03:48:09;;;;;;;9.23;4.97;;;;;;;21.29;80.89;98962.97;5033842;28;20247;-70
2023/06/10 03:50:36;;;;;;;8.23;4.80;;;;;;;21.35;80.83;98975.34;5034296;28;20193;-70
2023/06/10 03:53:03;;;;;;;6.47;4.87;;;;;;;21.32;81.03;98978.63;5036231;28;20192;-70
2023/06/10 03:55:31;;;;;;;4.90;4.50;;;;;;;21.39;80.92;98973.72;5034094;28;20264;-69
2023/06/10 03:57:58;;;;;;;5.23;4.73;;;;;;;21.46;80.63;98985.03;5033673;28;20221;-71
2023/06/10 04:00:25;;;;;;;4.90;4.50;;;;;;;21.50;80.40;98975.28;5035374;28;20201;-71
2023/06/10 04:02:52;;;;;;;8.23;5.37;;;;;;;21.57;79.67;98975.78;5033867;28;20251;-71
2023/06/10 04:05:21;;;;;;;5.60;4.97;;;;;;;21.62;78.57;98975.75;5033644;28;20207;-71
2023/06/10 04:07:48;;;;;;;5.27;4.77;;;;;;;21.64;78.10;98976.28;5033178;28;20674;-72
2023/06/10 04:10:15;;;;;;;8.07;5.17;;;;;;;21.70;78.29;98967.09;5035236;28;20213;-72
2023/06/10 04:12:43;;;;;;;9.73;4.80;;;;;;;21.77;78.06;98974.88;5030514;28;20253;-72
2023/06/10 04:15:10;;;;;;;5.83;5.10;;;;;;;21.82;77.88;98972.97;5033285;28;20260;-72
2023/06/10 04:17:38;;;;;;;5.70;5.23;;;;;;;21.87;77.63;98969.41;5033340;28;20194;-72
2023/06/10 04:20:07;;;;;;;6.23;5.73;;;;;;;21.94;77.82;98975.31;5033807;28;20194;-72
2023/06/10 04:22:34;;;;;;;7.57;5.40;;;;;;;21.94;77.54;98976.13;5031543;28;20233;-73
2023/06/10 04:25:01;;;;;;;11.20;6.60;;;;;;;21.89;76.87;98973.44;5030930;28;20273;-72
2023/06/10 04:27:27;;;;;;;8.13;6.37;;;;;;;21.77;77.18;98972.19;5033174;28;20396;-72
2023/06/10 04:29:55;;;;;;;15.87;6.70;;;;;;;21.67;78.54;98970.31;5033263;28;20244;-71
2023/06/10 04:32:22;;;;;;;8.00;6.50;;;;;;;21.69;78.20;98961.94;5051471;28;20619;-72
2023/06/10 04:34:49;;;;;;;10.77;7.10;;;;;;;21.67;77.83;98962.22;5053020;28;20588;-71
2023/06/10 04:37:16;;;;;;;9.47;6.47;;;;;;;21.74;78.28;98968.16;5033411;28;20204;-71
2023/06/10 04:39:43;;;;;;;15.07;6.83;;;;;;;21.85;77.47;98966.19;5033252;28;20221;-71
2023/06/10 04:42:10;;;;;;;10.37;6.57;;;;;;;21.96;76.82;98967.72;5034188;28;20259;-71
2023/06/10 04:44:36;;;;;;;8.13;7.13;;;;;;;22.03;76.44;98963.59;5033180;28;20271;-72
2023/06/10 04:47:07;;;;;;;8.50;7.33;;;;;;;22.09;75.67;98964.38;5033141;28;20186;-72
2023/06/10 04:49:34;;;;;;;7.13;6.50;;;;;;;22.07;75.89;98964.66;5030524;28;20324;-71
2023/06/10 04:52:01;;;;;;;8.33;6.40;;;;;;;22.10;76.08;98963.28;5033848;28;20651;-71
2023/06/10 04:54:28;;;;;;;8.30;6.47;;;;;;;22.19;76.12;98959.69;5032656;28;20259;-72
2023/06/10 04:56:55;;;;;;;9.47;6.40;;;;;;;22.33;75.57;98966.03;5032879;28;20244;-73
2023/06/10 04:59:21;;;;;;;8.93;6.47;;;;;;;22.41;74.34;98962.72;5032887;28;20577;-73
2023/06/10 05:01:48;;;;;;;7.60;6.00;;;;;;;22.55;74.38;98966.41;5044243;28;20688;-73
2023/06/10 05:04:16;;;;;;;7.20;6.50;;;;;;;22.60;73.80;98969.06;5051305;28;20259;-73
2023/06/10 05:06:43;;;;;;;9.13;6.90;;;;;;;22.72;73.70;98968.66;5033199;28;20252;-73
2023/06/10 05:09:10;;;;;;;6.83;6.30;;;;;;;22.83;73.81;98968.25;5035613;28;20216;-73
2023/06/10 05:11:37;;;;;;;11.47;6.70;;;;;;;22.93;73.11;98973.59;5053103;28;20200;-73
2023/06/10 05:14:04;;;;;;;172.40;20.00;;;;;;;23.11;72.37;98970.09;5052742;28;20192;-73
2023/06/10 05:16:30;;;;;;;31.03;8.77;;;;;;;23.29;72.02;98980.22;5052985;28;20250;-73
2023/06/10 05:18:57;;;;;;;124.00;15.67;;;;;;;23.86;71.20;98971.81;5050509;28;20202;-74
2023/06/10 05:21:25;;;;;;;25.47;8.03;;;;;;;24.54;68.18;98989.16;5032843;28;20195;-76
2023/06/10 05:23:52;;;;;;;11.87;6.57;;;;;;;24.98;65.81;98984.03;5032435;28;20290;-74
2023/06/10 05:26:19;;;;;;;9.50;5.97;;;;;;;25.61;63.37;98986.81;5032382;28;20750;-71
2023/06/10 05:28:45;;;;;;;8.43;5.10;;;;;;;25.79;62.62;98982.31;5037326;28;20193;-72
2023/06/10 05:31:12;;;;;;;6.33;5.23;;;;;;;25.78;62.80;98975.25;5032818;28;20209;-72
2023/06/10 05:33:39;;;;;;;7.07;3.63;;;;;;;26.01;62.98;98974.22;5031939;28;20201;-71
2023/06/10 05:36:06;;;;;;;12.93;4.60;;;;;;;26.50;60.80;98979.53;5036668;28;20668;-69
2023/06/10 05:38:34;;;;;;;6.97;4.77;;;;;;;26.89;59.29;98979.56;5052065;28;20204;-71
2023/06/10 05:41:01;;;;;;;9.43;4.33;;;;;;;27.00;58.83;98981.72;5052414;28;20185;-70
2023/06/10 05:43:27;;;;;;;6.30;4.20;;;;;;;27.13;58.43;98985.44;5052320;28;20197;-73
2023/06/10 05:45:54;;;;;;;7.50;5.33;;;;;;;27.25;57.75;98986.50;5049499;28;20205;-71
2023/06/10 05:48:21;;;;;;;8.40;4.23;;;;;;;27.42;57.24;98993.91;5031870;28;20197;-71
2023/06/10 05:50:48;;;;;;;4.40;4.00;;;;;;;27.46;56.70;98994.88;5031864;28;20243;-72
2023/06/10 05:53:15;;;;;;;8.97;5.57;;;;;;;27.51;56.31;98995.53;5031923;28;20747;-72
2023/06/10 05:55:44;;;;;;;12.00;4.80;;;;;;;27.60;56.03;98990.09;5032190;28;20196;-75
2023/06/10 05:58:12;;;;;;;22.07;6.17;;;;;;;27.62;54.39;99001.47;5012128;28;20232;-72
2023/06/10 06:00:39;;;;;;;5.90;5.30;;;;;;;27.61;55.23;98997.16;5012335;28;20289;-70
2023/06/10 06:03:08;;;;;;;6.27;5.43;;;;;;;27.69;53.48;99007.28;5012418;28;20252;-71
2023/06/10 06:05:35;;;;;;;6.07;5.53;;;;;;;27.65;54.40;99009.81;5024165;28;20618;-72
2023/06/10 06:08:02;;;;;;;8.37;5.83;;;;;;;27.73;53.25;99006.31;5050803;28;20192;-72
2023/06/10 06:10:29;;;;;;;9.53;5.17;;;;;;;28.04;51.84;99022.59;5051517;28;20220;-71
2023/06/10 06:12:57;;;;;;;13.63;5.30;;;;;;;28.14;52.98;99017.59;5051586;28;20664;-76
2023/06/10 06:15:24;;;;;;;8.87;5.67;;;;;;;28.12;51.81;99013.59;5040268;28;20194;-74
2023/06/10 06:17:52;;;;;;;4.73;4.33;;;;;;;28.14;52.15;99011.34;5032034;28;20208;-77
2023/06/10 06:20:19;;;;;;;11.73;5.20;;;;;;;27.95;52.61;99013.59;5031873;28;20197;-74
2023/06/10 06:22:45;;;;;;;9.50;5.33;;;;;;;27.82;52.57;99020.00;5031691;28;20665;-73
2023/06/10 06:25:12;;;;;;;10.33;5.50;;;;;;;27.72;52.04;99014.84;5040475;28;20185;-73
2023/06/10 06:27:39;;;;;;;8.27;4.73;;;;;;;27.71;53.51;99003.09;5051578;28;20246;-74
2023/06/10 06:30:08;;;;;;;8.73;5.37;;;;;;;27.79;53.52;99004.22;5038770;28;20221;-77
2023/06/10 06:32:35;;;;;;;7.67;6.40;;;;;;;27.83;53.11;99006.03;5020215;28;20252;-77
2023/06/10 06:35:02;;;;;;;15.40;8.27;;;;;;;27.88;54.84;99003.16;5026671;28;20573;-80
2023/06/10 06:37:29;;;;;;;7.00;5.83;;;;;;;27.93;52.30;99004.94;5030908;28;20637;-80
2023/06/10 06:39:55;;;;;;;8.47;6.70;;;;;;;28.02;53.69;98992.84;5030788;28;20297;-76
2023/06/10 06:42:22;;;;;;;11.57;7.53;;;;;;;28.13;53.01;98987.91;5031265;28;20201;-79
2023/06/10 06:44:49;;;;;;;7.20;6.10;;;;;;;28.38;51.63;98990.59;5036125;28;20204;-76
2023/06/10 06:47:19;;;;;;;8.33;6.00;;;;;;;28.44;51.63;98983.06;5036224;28;20585;-76
2023/06/10 06:49:46;;;;;;;5.93;5.07;;;;;;;28.72;51.14;98987.00;5031525;28;20219;-77
2023/06/10 06:52:13;;;;;;;6.67;5.30;;;;;;;28.99;49.96;98994.81;5033545;28;20284;-74
2023/06/10 06:54:40;;;;;;;5.80;5.20;;;;;;;28.99;50.15;98978.38;5034956;28;20203;-75
2023/06/10 06:57:07;;;;;;;8.07;5.53;;;;;;;29.02;49.60;98973.09;5052512;28;20246;-78
2023/06/10 06:59:34;;;;;;;6.37;5.77;;;;;;;29.00;49.13;98980.03;5052648;28;20246;-79
2023/06/10 07:02:00;;;;;;;7.30;5.37;;;;;;;28.93;49.74;98974.22;5051511;28;20712;-77
2023/06/10 07:04:28;;;;;;;7.77;4.87;;;;;;;28.90;50.15;98977.59;5034621;28;20209;-74
2023/06/10 07:06:55;;;;;;;7.83;5.53;;;;;;;28.71;50.57;98974.47;5031533;28;20209;-72
2023/06/10 07:09:22;;;;;;;8.20;4.90;;;;;;;28.52;51.09;98968.56;5033032;28;20662;-73
2023/06/10 07:11:48;;;;;;;6.23;4.67;;;;;;;28.38;52.35;98954.28;5031847;28;20255;-76
2023/06/10 07:14:15;;;;;;;11.90;4.90;;;;;;;28.41;52.42;98950.91;5051929;28;20954;-71
2023/06/10 07:16:42;;;;;;;11.37;4.90;;;;;;;28.51;52.40;98953.31;5052319;28;20189;-79
2023/06/10 07:19:09;;;;;;;13.90;5.73;;;;;;;28.53;52.38;98954.59;5053658;28;20205;-74
2023/06/10 07:21:37;;;;;;;7.67;5.47;;;;;;;28.54;51.30;98960.88;5039982;28;20197;-70
2023/06/10 07:24:04;;;;;;;6.47;5.47;;;;;;;28.52;51.74;98952.97;5033412;28;20193;-70
2023/06/10 07:26:32;;;;;;;12.57;5.20;;;;;;;28.70;52.06;98946.31;5031875;28;20677;-72
2023/06/10 07:28:59;;;;;;;12.03;5.53;;;;;;;29.20;50.86;98951.91;5035095;28;20200;-77
2023/06/10 07:31:25;;;;;;;15.53;5.60;;;;;;;29.40;48.87;98948.41;5052684;28;20604;-76
2023/06/10 07:33:52;;;;;;;10.60;5.47;;;;;;;29.35;47.93;98948.59;5039390;28;20637;-76
2023/06/10 07:36:19;;;;;;;11.00;5.97;;;;;;;29.34;49.40;98955.19;5031998;28;20689;-73
2023/06/10 07:38:47;;;;;;;11.80;5.63;;;;;;;29.17;50.25;98941.63;5035992;28;20286;-78
2023/06/10 07:41:14;;;;;;;13.90;5.53;;;;;;;29.07;50.11;98955.66;5052162;28;20200;-73
2023/06/10 07:43:40;;;;;;;7.30;6.07;;;;;;;28.89;50.39;98952.19;5052233;28;20274;-74
2023/06/10 07:46:08;;;;;;;10.67;6.00;;;;;;;28.72;50.37;98948.72;5051606;28;20201;-74
2023/06/10 07:48:35;;;;;;;6.33;5.87;;;;;;;28.44;50.88;98951.06;5047588;28;20193;-73
2023/06/10 07:51:01;;;;;;;6.77;5.33;;;;;;;28.56;50.79;98948.47;5032837;28;20217;-73
2023/06/10 07:53:28;;;;;;;9.93;5.17;;;;;;;28.73;51.90;98947.59;5029478;28;20205;-73
2023/06/10 07:55:56;;;;;;;8.10;4.70;;;;;;;28.62;48.37;98958.09;5032617;28;20201;-74
2023/06/10 07:58:23;;;;;;;11.40;4.83;;;;;;;28.26;51.77;98940.47;5032439;28;20271;-74
2023/06/10 08:00:50;;;;;;;9.23;5.03;;;;;;;28.52;50.79;98935.78;5030347;28;20205;-71
2023/06/10 08:03:16;;;;;;;5.57;5.03;;;;;;;28.85;49.65;98950.44;5033970;28;20194;-72
2023/06/10 08:05:44;;;;;;;5.23;4.63;;;;;;;29.37;48.42;98951.81;5034046;28;20284;-72
2023/06/10 08:08:10;;;;;;;7.53;5.27;;;;;;;29.65;48.44;98947.47;5033661;28;20669;-71
2023/06/10 08:10:37;;;;;;;6.30;5.20;;;;;;;29.90;47.63;98949.19;5032051;28;20682;-72
2023/06/10 08:13:05;;;;;;;6.60;5.27;;;;;;;30.07;44.98;98948.22;5034014;28;20200;-72
2023/06/10 08:15:32;;;;;;;6.43;5.83;;;;;;;30.20;44.96;98952.63;5033985;28;20283;-70
2023/06/10 08:17:59;;;;;;;5.87;5.37;;;;;;;30.06;43.86;98944.69;5033734;28;20198;-73
2023/06/10 08:20:26;;;;;;;5.73;5.07;;;;;;;29.67;46.87;98938.91;5047754;28;20201;-72
2023/06/10 08:22:52;;;;;;;5.67;5.17;;;;;;;30.16;46.50;98936.06;5053000;28;20196;-69
2023/06/10 08:25:21;;;;;;;7.93;5.20;;;;;;;30.60;44.49;98935.28;5053647;28;20259;-71
2023/06/10 08:27:48;;;;;;;8.93;4.50;;;;;;;30.94;41.44;98934.88;5045362;28;20200;-71
2023/06/10 08:30:16;;;;;;;7.00;4.03;;;;;;;31.11;39.30;98923.66;5030034;28;20225;-73
2023/06/10 08:32:43;;;;;;;4.00;3.70;;;;;;;31.42;39.15;98934.88;5021434;28;20221;-72
2023/06/10 08:35:09;;;;;;;6.20;3.93;;;;;;;31.55;41.37;98935.66;5032335;28;20205;-70
2023/06/10 08:37:36;;;;;;;7.50;3.97;;;;;;;31.63;41.86;98932.78;5031085;28;20197;-68
2023/06/10 08:40:03;;;;;;;5.20;4.07;;;;;;;31.67;40.91;98933.69;5028611;28;20717;-68
2023/06/10 08:42:35;;;;;;;4.20;3.80;;;;;;;31.71;37.59;98942.03;5005714;28;20238;-68
2023/06/10 08:45:03;;;;;;;11.23;4.03;;;;;;;31.77;40.29;98930.47;5030980;28;20193;-70
2023/06/10 08:47:32;;;;;;;6.87;3.90;;;;;;;31.86;39.57;98927.59;5032567;28;20252;-68
2023/06/10 08:50:04;;;;;;;3.90;3.60;;;;;;;31.95;39.01;98917.25;5042373;28;20220;-72
2023/06/10 08:52:37;;;;;;;4.60;3.90;;;;;;;31.93;36.97;98923.09;5050738;28;20197;-72
2023/06/10 08:55:05;;;;;;;7.27;4.00;;;;;;;32.15;38.77;98914.28;5052624;28;20223;-74
2023/06/10 08:57:32;;;;;;;4.17;3.63;;;;;;;32.56;35.94;98913.84;5052904;28;20285;-72
2023/06/10 08:59:59;;;;;;;4.33;3.93;;;;;;;32.57;36.31;98906.38;5042158;28;20200;-72
2023/06/10 09:02:26;;;;;;;6.13;3.83;;;;;;;32.26;36.17;98904.38;5033182;28;20193;-72
2023/06/10 09:04:56;;;;;;;3.80;3.60;;;;;;;32.06;36.15;98905.38;5032851;28;20665;-71
2023/06/10 09:07:24;;;;;;;3.83;3.63;;;;;;;32.13;36.87;98900.09;5032268;28;20664;-72
2023/06/10 09:09:53;;;;;;;7.43;4.00;;;;;;;32.21;35.95;98888.13;5041600;28;20231;-71
2023/06/10 09:12:20;;;;;;;3.83;3.63;;;;;;;32.40;35.66;98896.53;5053191;28;20192;-71
2023/06/10 09:14:47;;;;;;;6.43;3.80;;;;;;;32.19;35.75;98901.44;5053117;28;20277;-71
2023/06/10 09:17:13;;;;;;;5.27;3.90;;;;;;;32.12;36.50;98893.00;5052432;28;20250;-71
2023/06/10 09:19:42;;;;;;;18.17;4.67;;;;;;;32.02;36.40;98877.03;5045837;28;20197;-71
2023/06/10 09:22:10;;;;;;;8.10;3.83;;;;;;;32.08;36.84;98875.63;5032804;28;20194;-71
2023/06/10 09:24:37;;;;;;;5.97;3.50;;;;;;;32.30;36.08;98888.78;5032812;28;20196;-70
2023/06/10 09:27:06;;;;;;;4.20;3.63;;;;;;;32.33;36.43;98888.09;5032556;28;20193;-71
2023/06/10 09:29:33;;;;;;;4.23;3.30;;;;;;;32.45;35.34;98890.78;5050435;28;20696;-71
2023/06/10 09:31:59;;;;;;;3.67;3.37;;;;;;;32.48;35.78;98887.31;5052459;28;20224;-71
2023/06/10 09:34:26;;;;;;;4.37;3.97;;;;;;;32.58;34.32;98888.75;5052281;28;20667;-70
2023/06/10 09:36:55;;;;;;;11.27;4.10;;;;;;;32.11;34.84;98885.91;5041577;28;20193;-70
2023/06/10 09:39:23;;;;;;;7.80;4.47;;;;;;;32.09;35.34;98882.69;5031876;28;20697;-71
2023/06/10 09:41:50;;;;;;;16.10;4.23;;;;;;;31.80;36.77;98885.03;5031629;28;20197;-72
2023/06/10 09:44:19;;;;;;;6.90;4.30;;;;;;;31.72;36.36;98881.25;5031620;28;20198;-72
2023/06/10 09:46:47;;;;;;;7.47;4.03;;;;;;;31.72;37.56;98883.22;5039529;28;20217;-72
2023/06/10 09:49:14;;;;;;;6.37;4.60;;;;;;;31.80;39.08;98869.34;5051352;28;20200;-72
2023/06/10 09:51:50;;;;;;;5.70;5.17;;;;;;;31.25;40.23;98884.94;5051170;28;20220;-71
2023/06/10 09:54:18;;;;;;;6.27;4.20;;;;;;;31.18;41.04;98887.41;5051086;28;20184;-71
2023/06/10 09:56:48;;;;;;;5.73;4.20;;;;;;;31.12;40.79;98880.56;5042933;28;20193;-71
2023/06/10 09:59:15;;;;;;;19.20;5.10;;;;;;;31.15;41.28;98880.66;5031585;28;20653;-71
2023/06/10 10:01:42;;;;;;;6.47;4.10;;;;;;;31.02;41.08;98876.34;5031343;28;20197;-71
2023/06/10 10:04:09;;;;;;;4.40;4.10;;;;;;;31.04;41.06;98885.06;5031244;28;20200;-72
2023/06/10 10:06:37;;;;;;;4.10;3.70;;;;;;;31.18;39.93;98885.47;5033470;28;20193;-71
2023/06/10 10:09:05;;;;;;;3.87;3.67;;;;;;;31.50;39.50;98886.47;5051326;28;20193;-71
2023/06/10 10:11:35;;;;;;;4.83;4.53;;;;;;;31.36;39.42;98881.34;5050618;28;20227;-71
2023/06/10 10:14:05;;;;;;;8.07;3.30;;;;;;;31.39;39.93;98879.88;5050076;28;20367;-71
2023/06/10 10:16:40;;;;;;;4.20;4.00;;;;;;;31.46;39.42;98889.13;5048543;28;20263;-71
2023/06/10 10:19:11;;;;;;;3.63;3.43;;;;;;;31.60;38.78;98877.75;5030138;28;20266;-71
2023/06/10 10:21:44;;;;;;;4.30;3.90;;;;;;;31.82;38.32;98880.78;5031333;28;20185;-71
2023/06/10 10:24:16;;;;;;;4.17;3.97;;;;;;;31.86;37.87;98889.94;5031345;28;20189;-72
2023/06/10 10:26:44;;;;;;;4.73;4.00;;;;;;;31.88;37.78;98875.81;5033730;28;20188;-71
2023/06/10 10:29:21;;;;;;;5.30;4.50;;;;;;;31.68;37.59;98876.81;5050732;28;20626;-71
2023/06/10 10:31:51;;;;;;;7.70;4.37;;;;;;;31.72;37.84;98863.97;5050690;28;20219;-72
2023/06/10 10:34:22;;;;;;;6.03;4.50;;;;;;;31.58;37.81;98878.09;5050624;28;20734;-69
2023/06/10 10:36:50;;;;;;;4.17;3.87;;;;;;;31.37;39.70;98877.47;5030317;28;20247;-70
2023/06/10 10:39:17;;;;;;;6.23;4.37;;;;;;;31.33;38.68;98878.50;4991439;28;1116369;-69
2023/06/10 10:41:45;;;;;;;4.97;4.67;;;;;;;31.20;40.13;98874.94;5031408;28;20255;-70
2023/06/10 10:44:13;;;;;;;6.10;4.67;;;;;;;31.14;39.72;98868.09;5031376;28;20756;-72
2023/06/10 10:46:43;;;;;;;6.50;4.77;;;;;;;30.85;39.47;98865.63;5044825;28;20242;-72
2023/06/10 10:49:11;;;;;;;6.77;4.73;;;;;;;31.03;39.78;98877.94;5051339;28;20196;-72
2023/06/10 10:51:38;;;;;;;4.33;4.03;;;;;;;31.16;38.45;98876.81;5050089;28;20700;-72
2023/06/10 10:54:11;;;;;;;4.43;4.03;;;;;;;31.29;38.21;98870.16;5051208;28;20231;-72
2023/06/10 10:56:38;;;;;;;4.93;4.50;;;;;;;31.24;37.97;98873.13;5035665;28;20197;-72
2023/06/10 10:59:05;;;;;;;4.40;4.00;;;;;;;31.04;37.73;98874.06;5031517;28;20267;-72
2023/06/10 11:01:45;;;;;;;4.53;4.20;;;;;;;30.88;37.99;98862.19;5031834;28;20284;-72
2023/06/10 11:04:12;;;;;;;4.07;3.87;;;;;;;30.92;37.67;98865.84;5031161;28;20195;-72
2023/06/10 11:06:39;;;;;;;4.60;4.00;;;;;;;31.15;38.33;98864.19;5045588;28;20254;-72
2023/06/10 11:09:27;;;;;;;4.07;3.87;;;;;;;30.98;38.19;98860.91;5051213;28;20196;-72
2023/06/10 11:11:58;;;;;;;4.80;4.50;;;;;;;30.97;38.33;98862.06;5051459;28;20296;-72
2023/06/10 11:14:28;;;;;;;6.03;4.73;;;;;;;30.76;38.86;98848.47;5050980;28;20220;-72
2023/06/10 11:16:58;;;;;;;8.63;4.90;;;;;;;30.76;38.91;98853.97;5034391;28;20193;-72
2023/06/10 11:19:46;;;;;;;4.60;3.87;;;;;;;30.88;38.83;98848.47;5031301;28;20197;-73
2023/06/10 11:22:17;;;;;;;11.03;3.67;;;;;;;30.74;40.43;98845.28;5031497;28;20198;-72
2023/06/10 11:24:48;;;;;;;4.37;3.90;;;;;;;30.92;39.29;98845.84;5031476;28;20573;-73
2023/06/10 11:27:17;;;;;;;4.33;3.50;;;;;;;30.80;38.94;98841.16;5049084;28;20648;-72
2023/06/10 11:29:56;;;;;;;3.63;3.40;;;;;;;30.97;38.00;98851.09;5051106;28;20777;-73
2023/06/10 11:32:29;;;;;;;7.20;3.70;;;;;;;30.78;37.99;98843.44;5054791;28;20217;-72
2023/06/10 11:34:57;;;;;;;4.70;3.90;;;;;;;30.48;38.16;98850.28;5054587;28;20204;-72